sensor_id;sensor_type;location;lat;lon;timestamp;temperature;humidity
44729;DHT22;30457;53.590;9.922;2022-09-17T00:01:30;16.80;60.00
44729;DHT22;30457;53.590;9.922;2022-09-17T00:06:02;16.90;60.00
44729;DHT22;30457;53.590;9.922;2022-09-17T00:10:28;16.90;60.10
44729;DHT22;30457;53.590;9.922;2022-09-17T00:14:54;16.90;59.90
44729;DHT22;30457;53.590;9.922;2022-09-17T00:19:21;16.90;60.00
44729;DHT22;30457;53.590;9.922;2022-09-17T00:23:48;16.90;60.10
44729;DHT22;30457;53.590;9.922;2022-09-17T00:28:16;16.90;60.10
44729;DHT22;30457;53.590;9.922;2022-09-17T00:32:42;16.80;60.00
44729;DHT22;30457;53.590;9.922;2022-09-17T00:37:08;16.90;60.00
44729;DHT22;30457;53.590;9.922;2022-09-17T00:41:34;16.80;59.80
44729;DHT22;30457;53.590;9.922;2022-09-17T00:46:00;16.80;59.60
44729;DHT22;30457;53.590;9.922;2022-09-17T00:50:30;16.80;59.50
44729;DHT22;30457;53.590;9.922;2022-09-17T00:55:10;16.80;59.40
44729;DHT22;30457;53.590;9.922;2022-09-17T00:59:37;16.80;59.50
44729;DHT22;30457;53.590;9.922;2022-09-17T01:04:03;16.80;59.30
44729;DHT22;30457;53.590;9.922;2022-09-17T01:08:43;16.70;59.20
44729;DHT22;30457;53.590;9.922;2022-09-17T01:18:36;16.60;59.60
44729;DHT22;30457;53.590;9.922;2022-09-17T01:23:34;16.60;59.50
44729;DHT22;30457;53.590;9.922;2022-09-17T01:28:44;16.50;59.40
44729;DHT22;30457;53.590;9.922;2022-09-17T01:47:00;16.40;59.40
44729;DHT22;30457;53.590;9.922;2022-09-17T01:51:35;16.40;59.40
44729;DHT22;30457;53.590;9.922;2022-09-17T01:56:03;16.40;59.50
44729;DHT22;30457;53.590;9.922;2022-09-17T02:00:30;16.40;59.40
44729;DHT22;30457;53.590;9.922;2022-09-17T02:05:05;16.40;59.30
44729;DHT22;30457;53.590;9.922;2022-09-17T02:09:37;16.30;59.50
44729;DHT22;30457;53.590;9.922;2022-09-17T02:14:11;16.40;59.50
44729;DHT22;30457;53.590;9.922;2022-09-17T02:19:22;16.30;59.50
44729;DHT22;30457;53.590;9.922;2022-09-17T02:28:45;16.30;59.80
44729;DHT22;30457;53.590;9.922;2022-09-17T02:33:13;16.30;59.90
44729;DHT22;30457;53.590;9.922;2022-09-17T02:37:40;16.30;59.90
44729;DHT22;30457;53.590;9.922;2022-09-17T02:42:42;16.30;60.00
44729;DHT22;30457;53.590;9.922;2022-09-17T02:52:15;16.20;60.20
44729;DHT22;30457;53.590;9.922;2022-09-17T02:56:48;16.20;59.90
44729;DHT22;30457;53.590;9.922;2022-09-17T03:01:31;16.20;60.00
44729;DHT22;30457;53.590;9.922;2022-09-17T03:05:58;16.20;59.90
44729;DHT22;30457;53.590;9.922;2022-09-17T03:10:25;16.20;60.00
44729;DHT22;30457;53.590;9.922;2022-09-17T03:14:53;16.20;59.90
44729;DHT22;30457;53.590;9.922;2022-09-17T03:19:19;16.20;59.90
44729;DHT22;30457;53.590;9.922;2022-09-17T03:23:45;16.10;59.90
44729;DHT22;30457;53.590;9.922;2022-09-17T03:28:11;16.20;60.00
44729;DHT22;30457;53.590;9.922;2022-09-17T03:32:36;16.10;60.00
44729;DHT22;30457;53.590;9.922;2022-09-17T03:37:02;16.10;60.20
44729;DHT22;30457;53.590;9.922;2022-09-17T03:41:28;16.10;60.50
44729;DHT22;30457;53.590;9.922;2022-09-17T03:45:54;16.10;60.60
44729;DHT22;30457;53.590;9.922;2022-09-17T03:50:19;16.10;60.30
44729;DHT22;30457;53.590;9.922;2022-09-17T03:54:45;16.10;60.40
44729;DHT22;30457;53.590;9.922;2022-09-17T03:59:10;16.00;60.40
44729;DHT22;30457;53.590;9.922;2022-09-17T04:03:36;16.00;60.30
44729;DHT22;30457;53.590;9.922;2022-09-17T04:08:01;16.00;60.10
44729;DHT22;30457;53.590;9.922;2022-09-17T04:12:27;16.00;60.00
44729;DHT22;30457;53.590;9.922;2022-09-17T04:16:52;15.90;60.00
44729;DHT22;30457;53.590;9.922;2022-09-17T04:21:18;15.90;60.00
44729;DHT22;30457;53.590;9.922;2022-09-17T04:25:44;16.00;60.00
44729;DHT22;30457;53.590;9.922;2022-09-17T04:30:10;15.90;60.20
44729;DHT22;30457;53.590;9.922;2022-09-17T04:34:36;15.80;60.30
44729;DHT22;30457;53.590;9.922;2022-09-17T04:39:01;15.80;60.30
44729;DHT22;30457;53.590;9.922;2022-09-17T04:43:27;15.80;60.20
44729;DHT22;30457;53.590;9.922;2022-09-17T04:47:52;15.80;60.10
44729;DHT22;30457;53.590;9.922;2022-09-17T04:52:18;15.80;60.10
44729;DHT22;30457;53.590;9.922;2022-09-17T04:56:44;15.70;60.30
44729;DHT22;30457;53.590;9.922;2022-09-17T05:01:09;15.70;60.50
44729;DHT22;30457;53.590;9.922;2022-09-17T05:05:35;15.70;60.50
44729;DHT22;30457;53.590;9.922;2022-09-17T05:10:00;15.60;60.50
44729;DHT22;30457;53.590;9.922;2022-09-17T05:14:26;15.60;60.50
44729;DHT22;30457;53.590;9.922;2022-09-17T05:18:52;15.60;60.60
44729;DHT22;30457;53.590;9.922;2022-09-17T05:23:17;15.60;60.70
44729;DHT22;30457;53.590;9.922;2022-09-17T05:27:44;15.60;61.60
44729;DHT22;30457;53.590;9.922;2022-09-17T05:32:10;15.60;60.80
44729;DHT22;30457;53.590;9.922;2022-09-17T05:36:36;15.60;60.90
44729;DHT22;30457;53.590;9.922;2022-09-17T05:41:06;15.60;60.90
44729;DHT22;30457;53.590;9.922;2022-09-17T05:45:32;15.60;61.00
44729;DHT22;30457;53.590;9.922;2022-09-17T05:49:58;15.60;61.10
44729;DHT22;30457;53.590;9.922;2022-09-17T05:54:24;15.60;61.00
44729;DHT22;30457;53.590;9.922;2022-09-17T05:58:49;15.60;61.00
44729;DHT22;30457;53.590;9.922;2022-09-17T06:03:17;15.60;60.90
44729;DHT22;30457;53.590;9.922;2022-09-17T06:07:43;15.70;60.80
44729;DHT22;30457;53.590;9.922;2022-09-17T06:12:08;15.60;60.80
44729;DHT22;30457;53.590;9.922;2022-09-17T06:16:34;15.70;60.70
44729;DHT22;30457;53.590;9.922;2022-09-17T06:21:01;15.70;60.90
44729;DHT22;30457;53.590;9.922;2022-09-17T06:25:27;15.70;60.70
44729;DHT22;30457;53.590;9.922;2022-09-17T06:29:53;15.60;60.70
44729;DHT22;30457;53.590;9.922;2022-09-17T06:34:19;15.70;60.50
44729;DHT22;30457;53.590;9.922;2022-09-17T06:38:44;15.60;60.20
44729;DHT22;30457;53.590;9.922;2022-09-17T06:43:10;15.60;60.30
44729;DHT22;30457;53.590;9.922;2022-09-17T06:47:36;15.60;60.50
44729;DHT22;30457;53.590;9.922;2022-09-17T06:52:02;15.60;60.30
44729;DHT22;30457;53.590;9.922;2022-09-17T06:56:28;15.70;60.50
44729;DHT22;30457;53.590;9.922;2022-09-17T07:00:58;15.70;61.10
44729;DHT22;30457;53.590;9.922;2022-09-17T07:05:25;15.80;60.80
44729;DHT22;30457;53.590;9.922;2022-09-17T07:09:51;15.90;61.00
44729;DHT22;30457;53.590;9.922;2022-09-17T07:14:18;16.10;61.40
44729;DHT22;30457;53.590;9.922;2022-09-17T07:18:43;16.30;61.30
44729;DHT22;30457;53.590;9.922;2022-09-17T07:23:09;16.40;60.00
44729;DHT22;30457;53.590;9.922;2022-09-17T07:27:35;16.50;59.50
44729;DHT22;30457;53.590;9.922;2022-09-17T07:32:00;16.60;59.40
44729;DHT22;30457;53.590;9.922;2022-09-17T07:36:26;16.60;59.10
44729;DHT22;30457;53.590;9.922;2022-09-17T07:41:01;16.70;59.00
44729;DHT22;30457;53.590;9.922;2022-09-17T07:45:28;16.70;59.20
44729;DHT22;30457;53.590;9.922;2022-09-17T07:49:53;16.70;58.90
44729;DHT22;30457;53.590;9.922;2022-09-17T07:54:19;16.70;59.00
44729;DHT22;30457;53.590;9.922;2022-09-17T07:58:44;16.80;59.40
44729;DHT22;30457;53.590;9.922;2022-09-17T08:03:10;16.90;59.80
44729;DHT22;30457;53.590;9.922;2022-09-17T08:07:36;17.10;59.80
44729;DHT22;30457;53.590;9.922;2022-09-17T08:12:01;17.30;59.20
44729;DHT22;30457;53.590;9.922;2022-09-17T08:16:27;17.50;59.40
44729;DHT22;30457;53.590;9.922;2022-09-17T08:20:59;17.60;58.10
44729;DHT22;30457;53.590;9.922;2022-09-17T08:25:25;17.70;57.30
44729;DHT22;30457;53.590;9.922;2022-09-17T08:29:50;17.70;57.00
44729;DHT22;30457;53.590;9.922;2022-09-17T08:34:16;17.60;56.80
44729;DHT22;30457;53.590;9.922;2022-09-17T08:38:42;17.60;57.00
44729;DHT22;30457;53.590;9.922;2022-09-17T08:43:10;17.50;56.90
44729;DHT22;30457;53.590;9.922;2022-09-17T08:47:42;17.50;57.10
44729;DHT22;30457;53.590;9.922;2022-09-17T08:52:38;17.60;57.20
44729;DHT22;30457;53.590;9.922;2022-09-17T08:57:32;17.70;56.50
44729;DHT22;30457;53.590;9.922;2022-09-17T09:07:33;17.70;56.40
44729;DHT22;30457;53.590;9.922;2022-09-17T09:12:05;17.80;56.40
44729;DHT22;30457;53.590;9.922;2022-09-17T09:16:33;17.80;55.60
44729;DHT22;30457;53.590;9.922;2022-09-17T09:25:54;17.80;54.30
44729;DHT22;30457;53.590;9.922;2022-09-17T09:30:21;17.80;54.20
44729;DHT22;30457;53.590;9.922;2022-09-17T09:34:49;17.90;55.40
44729;DHT22;30457;53.590;9.922;2022-09-17T09:39:28;18.00;55.20
44729;DHT22;30457;53.590;9.922;2022-09-17T09:44:07;18.20;53.60
44729;DHT22;30457;53.590;9.922;2022-09-17T09:53:44;18.40;53.20
44729;DHT22;30457;53.590;9.922;2022-09-17T09:58:25;18.40;53.10
44729;DHT22;30457;53.590;9.922;2022-09-17T10:02:58;18.40;52.90
44729;DHT22;30457;53.590;9.922;2022-09-17T10:07:24;18.40;53.20
44729;DHT22;30457;53.590;9.922;2022-09-17T10:11:59;18.40;53.00
44729;DHT22;30457;53.590;9.922;2022-09-17T10:16:26;18.40;51.80
44729;DHT22;30457;53.590;9.922;2022-09-17T10:25:30;18.30;53.00
44729;DHT22;30457;53.590;9.922;2022-09-17T10:34:29;18.30;53.30
44729;DHT22;30457;53.590;9.922;2022-09-17T10:38:55;18.30;53.10
44729;DHT22;30457;53.590;9.922;2022-09-17T10:43:22;18.20;52.90
44729;DHT22;30457;53.590;9.922;2022-09-17T10:47:47;18.20;52.90
44729;DHT22;30457;53.590;9.922;2022-09-17T10:52:33;18.10;52.90
44729;DHT22;30457;53.590;9.922;2022-09-17T10:57:00;18.10;53.10
44729;DHT22;30457;53.590;9.922;2022-09-17T11:01:35;18.10;53.60
44729;DHT22;30457;53.590;9.922;2022-09-17T11:11:27;18.00;53.80
44729;DHT22;30457;53.590;9.922;2022-09-17T11:15:58;18.00;53.70
44729;DHT22;30457;53.590;9.922;2022-09-17T11:25:33;18.00;53.60
44729;DHT22;30457;53.590;9.922;2022-09-17T11:30:09;18.10;53.30
44729;DHT22;30457;53.590;9.922;2022-09-17T11:34:41;18.20;53.40
44729;DHT22;30457;53.590;9.922;2022-09-17T11:39:18;18.30;53.30
44729;DHT22;30457;53.590;9.922;2022-09-17T11:53:18;18.40;53.70
44729;DHT22;30457;53.590;9.922;2022-09-17T11:57:51;18.40;53.80
44729;DHT22;30457;53.590;9.922;2022-09-17T12:02:38;18.50;54.00
44729;DHT22;30457;53.590;9.922;2022-09-17T12:07:18;18.50;53.60
44729;DHT22;30457;53.590;9.922;2022-09-17T12:11:51;18.50;53.80
44729;DHT22;30457;53.590;9.922;2022-09-17T12:16:24;18.50;53.50
44729;DHT22;30457;53.590;9.922;2022-09-17T12:20:53;18.50;54.40
44729;DHT22;30457;53.590;9.922;2022-09-17T12:25:21;18.60;54.40
44729;DHT22;30457;53.590;9.922;2022-09-17T12:30:07;18.70;54.30
44729;DHT22;30457;53.590;9.922;2022-09-17T12:34:54;18.80;54.40
44729;DHT22;30457;53.590;9.922;2022-09-17T12:39:31;19.00;54.30
44729;DHT22;30457;53.590;9.922;2022-09-17T12:49:18;19.60;54.70
44729;DHT22;30457;53.590;9.922;2022-09-17T12:54:09;20.00;54.50
44729;DHT22;30457;53.590;9.922;2022-09-17T12:58:54;20.30;54.00
44729;DHT22;30457;53.590;9.922;2022-09-17T13:03:35;20.50;53.20
44729;DHT22;30457;53.590;9.922;2022-09-17T13:18:10;20.80;52.40
44729;DHT22;30457;53.590;9.922;2022-09-17T13:22:50;20.60;52.30
44729;DHT22;30457;53.590;9.922;2022-09-17T13:27:24;20.40;52.20
44729;DHT22;30457;53.590;9.922;2022-09-17T13:31:50;20.10;52.50
44729;DHT22;30457;53.590;9.922;2022-09-17T13:36:39;19.80;53.00
44729;DHT22;30457;53.590;9.922;2022-09-17T13:41:17;19.60;53.40
44729;DHT22;30457;53.590;9.922;2022-09-17T13:50:36;19.30;54.10
44729;DHT22;30457;53.590;9.922;2022-09-17T13:55:03;19.20;55.00
44729;DHT22;30457;53.590;9.922;2022-09-17T13:59:29;19.30;55.60
44729;DHT22;30457;53.590;9.922;2022-09-17T14:03:55;19.30;55.30
44729;DHT22;30457;53.590;9.922;2022-09-17T14:13:32;19.40;55.20
44729;DHT22;30457;53.590;9.922;2022-09-17T14:22:58;19.30;54.70
44729;DHT22;30457;53.590;9.922;2022-09-17T14:27:53;19.30;55.30
44729;DHT22;30457;53.590;9.922;2022-09-17T14:32:27;19.30;56.10
44729;DHT22;30457;53.590;9.922;2022-09-17T14:36:56;19.40;54.70
44729;DHT22;30457;53.590;9.922;2022-09-17T14:41:26;19.40;53.70
44729;DHT22;30457;53.590;9.922;2022-09-17T14:45:55;19.30;53.10
44729;DHT22;30457;53.590;9.922;2022-09-17T14:50:25;19.10;53.40
44729;DHT22;30457;53.590;9.922;2022-09-17T14:55:13;18.90;53.70
44729;DHT22;30457;53.590;9.922;2022-09-17T15:08:44;18.40;54.60
44729;DHT22;30457;53.590;9.922;2022-09-17T15:13:19;18.30;55.10
44729;DHT22;30457;53.590;9.922;2022-09-17T15:17:46;18.20;56.10
44729;DHT22;30457;53.590;9.922;2022-09-17T15:22:37;18.20;55.70
44729;DHT22;30457;53.590;9.922;2022-09-17T15:27:13;18.10;56.10
44729;DHT22;30457;53.590;9.922;2022-09-17T15:31:41;18.10;56.00
44729;DHT22;30457;53.590;9.922;2022-09-17T15:36:20;18.00;55.70
44729;DHT22;30457;53.590;9.922;2022-09-17T15:40:46;18.10;55.70
44729;DHT22;30457;53.590;9.922;2022-09-17T15:45:30;18.10;55.80
44729;DHT22;30457;53.590;9.922;2022-09-17T15:50:23;18.00;55.70
44729;DHT22;30457;53.590;9.922;2022-09-17T15:54:48;18.00;55.60
44729;DHT22;30457;53.590;9.922;2022-09-17T15:59:26;18.00;55.50
44729;DHT22;30457;53.590;9.922;2022-09-17T16:08:32;17.90;56.10
44729;DHT22;30457;53.590;9.922;2022-09-17T16:12:58;17.90;55.90
44729;DHT22;30457;53.590;9.922;2022-09-17T16:17:44;17.90;56.00
44729;DHT22;30457;53.590;9.922;2022-09-17T16:22:10;17.90;56.00
44729;DHT22;30457;53.590;9.922;2022-09-17T16:26:35;17.90;55.80
44729;DHT22;30457;53.590;9.922;2022-09-17T16:31:02;17.90;55.60
44729;DHT22;30457;53.590;9.922;2022-09-17T16:35:29;17.90;55.80
44729;DHT22;30457;53.590;9.922;2022-09-17T16:39:55;17.90;56.00
44729;DHT22;30457;53.590;9.922;2022-09-17T16:44:21;17.90;56.10
44729;DHT22;30457;53.590;9.922;2022-09-17T16:48:50;17.80;56.00
44729;DHT22;30457;53.590;9.922;2022-09-17T16:53:16;17.70;56.20
44729;DHT22;30457;53.590;9.922;2022-09-17T16:57:42;17.70;56.20
44729;DHT22;30457;53.590;9.922;2022-09-17T17:02:08;17.70;56.00
44729;DHT22;30457;53.590;9.922;2022-09-17T17:06:34;17.70;56.10
44729;DHT22;30457;53.590;9.922;2022-09-17T17:11:00;17.60;56.70
44729;DHT22;30457;53.590;9.922;2022-09-17T17:15:26;17.60;56.10
44729;DHT22;30457;53.590;9.922;2022-09-17T17:19:53;17.60;56.30
44729;DHT22;30457;53.590;9.922;2022-09-17T17:24:19;17.50;56.40
44729;DHT22;30457;53.590;9.922;2022-09-17T17:28:44;17.50;56.30
44729;DHT22;30457;53.590;9.922;2022-09-17T17:33:10;17.50;56.20
44729;DHT22;30457;53.590;9.922;2022-09-17T17:37:36;17.40;56.20
44729;DHT22;30457;53.590;9.922;2022-09-17T17:42:02;17.40;56.40
44729;DHT22;30457;53.590;9.922;2022-09-17T17:46:28;17.30;56.30
44729;DHT22;30457;53.590;9.922;2022-09-17T17:50:53;17.30;56.40
44729;DHT22;30457;53.590;9.922;2022-09-17T17:55:19;17.30;57.00
44729;DHT22;30457;53.590;9.922;2022-09-17T17:59:45;17.20;56.50
44729;DHT22;30457;53.590;9.922;2022-09-17T18:04:10;17.20;56.50
44729;DHT22;30457;53.590;9.922;2022-09-17T18:08:37;17.20;56.60
44729;DHT22;30457;53.590;9.922;2022-09-17T18:13:03;17.20;56.70
44729;DHT22;30457;53.590;9.922;2022-09-17T18:17:28;17.20;56.60
44729;DHT22;30457;53.590;9.922;2022-09-17T18:21:56;17.20;56.60
44729;DHT22;30457;53.590;9.922;2022-09-17T18:26:24;17.10;56.80
44729;DHT22;30457;53.590;9.922;2022-09-17T18:30:50;17.10;56.70
44729;DHT22;30457;53.590;9.922;2022-09-17T18:35:16;17.10;56.80
44729;DHT22;30457;53.590;9.922;2022-09-17T18:39:44;17.10;56.90
44729;DHT22;30457;53.590;9.922;2022-09-17T18:44:10;17.10;56.90
44729;DHT22;30457;53.590;9.922;2022-09-17T18:48:35;17.10;57.20
44729;DHT22;30457;53.590;9.922;2022-09-17T18:53:01;17.10;57.10
44729;DHT22;30457;53.590;9.922;2022-09-17T18:57:27;17.10;57.10
44729;DHT22;30457;53.590;9.922;2022-09-17T19:01:52;17.00;57.20
44729;DHT22;30457;53.590;9.922;2022-09-17T19:06:18;17.00;57.30
44729;DHT22;30457;53.590;9.922;2022-09-17T19:10:49;17.00;57.40
44729;DHT22;30457;53.590;9.922;2022-09-17T19:15:14;17.00;57.50
44729;DHT22;30457;53.590;9.922;2022-09-17T19:19:40;17.00;57.60
44729;DHT22;30457;53.590;9.922;2022-09-17T19:24:06;16.90;57.40
44729;DHT22;30457;53.590;9.922;2022-09-17T19:28:32;16.90;57.40
44729;DHT22;30457;53.590;9.922;2022-09-17T19:32:57;16.90;57.40
44729;DHT22;30457;53.590;9.922;2022-09-17T19:37:23;16.80;57.30
44729;DHT22;30457;53.590;9.922;2022-09-17T19:41:49;16.80;57.20
44729;DHT22;30457;53.590;9.922;2022-09-17T19:46:17;16.70;57.40
44729;DHT22;30457;53.590;9.922;2022-09-17T19:50:53;16.70;57.40
44729;DHT22;30457;53.590;9.922;2022-09-17T19:55:18;16.60;57.50
44729;DHT22;30457;53.590;9.922;2022-09-17T19:59:46;16.60;57.20
44729;DHT22;30457;53.590;9.922;2022-09-17T20:04:12;16.50;57.30
44729;DHT22;30457;53.590;9.922;2022-09-17T20:08:48;16.50;57.40
44729;DHT22;30457;53.590;9.922;2022-09-17T20:13:16;16.40;57.60
44729;DHT22;30457;53.590;9.922;2022-09-17T20:17:42;16.40;57.60
44729;DHT22;30457;53.590;9.922;2022-09-17T20:22:07;16.30;57.50
44729;DHT22;30457;53.590;9.922;2022-09-17T20:26:33;16.30;57.60
44729;DHT22;30457;53.590;9.922;2022-09-17T20:31:01;16.30;57.50
44729;DHT22;30457;53.590;9.922;2022-09-17T20:35:26;16.20;57.60
44729;DHT22;30457;53.590;9.922;2022-09-17T20:39:52;16.20;57.80
44729;DHT22;30457;53.590;9.922;2022-09-17T20:44:17;16.20;57.70
44729;DHT22;30457;53.590;9.922;2022-09-17T20:48:43;16.10;57.70
44729;DHT22;30457;53.590;9.922;2022-09-17T20:53:09;16.10;57.80
44729;DHT22;30457;53.590;9.922;2022-09-17T20:57:34;16.10;57.80
44729;DHT22;30457;53.590;9.922;2022-09-17T21:02:00;16.10;57.70
44729;DHT22;30457;53.590;9.922;2022-09-17T21:06:29;16.10;57.70
44729;DHT22;30457;53.590;9.922;2022-09-17T21:10:55;16.10;58.10
44729;DHT22;30457;53.590;9.922;2022-09-17T21:15:20;16.00;58.10
44729;DHT22;30457;53.590;9.922;2022-09-17T21:19:46;16.00;57.90
44729;DHT22;30457;53.590;9.922;2022-09-17T21:24:12;16.00;57.80
44729;DHT22;30457;53.590;9.922;2022-09-17T21:28:38;16.10;57.80
44729;DHT22;30457;53.590;9.922;2022-09-17T21:33:03;16.00;57.70
44729;DHT22;30457;53.590;9.922;2022-09-17T21:37:29;16.00;57.70
44729;DHT22;30457;53.590;9.922;2022-09-17T21:41:54;16.00;57.80
44729;DHT22;30457;53.590;9.922;2022-09-17T21:46:25;16.00;57.70
44729;DHT22;30457;53.590;9.922;2022-09-17T21:50:51;16.00;57.80
44729;DHT22;30457;53.590;9.922;2022-09-17T21:55:17;16.00;57.70
44729;DHT22;30457;53.590;9.922;2022-09-17T21:59:43;16.00;57.60
44729;DHT22;30457;53.590;9.922;2022-09-17T22:04:10;16.00;57.50
44729;DHT22;30457;53.590;9.922;2022-09-17T22:08:37;15.90;57.60
44729;DHT22;30457;53.590;9.922;2022-09-17T22:13:03;15.90;57.60
44729;DHT22;30457;53.590;9.922;2022-09-17T22:17:29;15.90;57.60
44729;DHT22;30457;53.590;9.922;2022-09-17T22:21:55;15.90;57.70
44729;DHT22;30457;53.590;9.922;2022-09-17T22:26:22;15.90;57.60
44729;DHT22;30457;53.590;9.922;2022-09-17T22:30:48;15.90;57.50
44729;DHT22;30457;53.590;9.922;2022-09-17T22:35:14;15.90;57.60
44729;DHT22;30457;53.590;9.922;2022-09-17T22:39:39;15.90;57.50
44729;DHT22;30457;53.590;9.922;2022-09-17T22:44:06;15.90;57.50
44729;DHT22;30457;53.590;9.922;2022-09-17T22:48:31;15.90;57.30
44729;DHT22;30457;53.590;9.922;2022-09-17T22:52:57;15.90;57.20
44729;DHT22;30457;53.590;9.922;2022-09-17T22:57:23;15.80;57.10
44729;DHT22;30457;53.590;9.922;2022-09-17T23:01:48;15.80;57.20
44729;DHT22;30457;53.590;9.922;2022-09-17T23:06:16;15.80;57.20
44729;DHT22;30457;53.590;9.922;2022-09-17T23:10:43;15.70;57.30
44729;DHT22;30457;53.590;9.922;2022-09-17T23:15:08;15.70;57.20
44729;DHT22;30457;53.590;9.922;2022-09-17T23:19:34;15.70;57.10
44729;DHT22;30457;53.590;9.922;2022-09-17T23:24:00;15.70;57.10
44729;DHT22;30457;53.590;9.922;2022-09-17T23:28:26;15.60;57.20
44729;DHT22;30457;53.590;9.922;2022-09-17T23:32:53;15.60;57.10
44729;DHT22;30457;53.590;9.922;2022-09-17T23:37:18;15.60;57.20
44729;DHT22;30457;53.590;9.922;2022-09-17T23:41:46;15.60;57.20
44729;DHT22;30457;53.590;9.922;2022-09-17T23:46:12;15.60;57.20
44729;DHT22;30457;53.590;9.922;2022-09-17T23:50:38;15.60;57.30
44729;DHT22;30457;53.590;9.922;2022-09-17T23:55:04;15.60;57.30
44729;DHT22;30457;53.590;9.922;2022-09-17T23:59:30;15.60;57.40
